Time;durP1;ratioP1;P1;durP2;ratioP2;P2;SDS_P1;SDS_P2;PMS_P1;PMS_P2;Temp;Humidity;BMP_temperature;BMP_pressure;BME280_temperature;BME280_humidity;BME280_pressure;Samples;Min_cycle;Max_cycle;Signal;HPM_P1;HPM_P2
2021/04/27 00:01:48;;;;;;;3.60;1.13;;;;;;;3.25;55.71;100809.94;5083237;28;20028;-60
2021/04/27 00:04:14;;;;;;;1.95;1.20;;;;;;;3.22;55.87;100807.28;5083377;28;20104;-60
2021/04/27 00:06:39;;;;;;;2.67;1.52;;;;;;;3.17;56.63;100820.00;5081893;28;20016;-60
2021/04/27 00:09:06;;;;;;;2.05;1.17;;;;;;;3.16;56.35;100810.56;5082979;28;20023;-60
2021/04/27 00:11:32;;;;;;;4.03;1.25;;;;;;;3.14;56.09;100817.34;5081882;28;20148;-60
2021/04/27 00:13:58;;;;;;;1.85;1.20;;;;;;;3.10;56.68;100815.50;5082722;28;20050;-60
2021/04/27 00:16:23;;;;;;;3.65;1.40;;;;;;;3.03;56.34;100800.75;5083303;28;20033;-61
2021/04/27 00:18:49;;;;;;;3.55;1.10;;;;;;;3.07;56.50;100810.28;5082945;28;20030;-60
2021/04/27 00:21:14;;;;;;;3.83;1.42;;;;;;;3.03;56.49;100804.22;5083310;28;20063;-60
2021/04/27 00:23:40;;;;;;;6.88;1.77;;;;;;;3.01;56.24;100800.72;5083278;28;20020;-60
2021/04/27 00:26:06;;;;;;;1.73;1.08;;;;;;;2.91;56.82;100788.44;5083002;28;20035;-60
2021/04/27 00:28:31;;;;;;;3.40;1.38;;;;;;;3.01;57.18;100797.28;5082734;28;20020;-60
2021/04/27 00:30:56;;;;;;;5.30;1.40;;;;;;;2.97;57.05;100794.63;5082971;28;20103;-60
2021/04/27 00:33:22;;;;;;;2.50;1.40;;;;;;;3.00;57.12;100793.88;5082890;28;20519;-60
2021/04/27 00:35:47;;;;;;;2.28;1.10;;;;;;;3.03;57.17;100787.94;5081609;28;20029;-60
2021/04/27 00:38:13;;;;;;;2.63;1.25;;;;;;;3.02;57.38;100788.78;5081549;28;20021;-60
2021/04/27 00:40:38;;;;;;;3.25;1.38;;;;;;;3.07;57.47;100789.75;5082011;28;20024;-60
2021/04/27 00:43:04;;;;;;;2.67;0.90;;;;;;;3.02;57.45;100776.78;5081524;28;20032;-60
2021/04/27 00:45:30;;;;;;;3.70;1.17;;;;;;;3.02;57.40;100791.34;5081961;28;20131;-60
2021/04/27 00:47:57;;;;;;;3.67;1.30;;;;;;;3.00;57.01;100792.97;5081717;28;20098;-59
2021/04/27 00:50:36;;;;;;;3.75;1.30;;;;;;;2.97;56.68;100792.06;5081194;28;20100;-59
2021/04/27 00:53:03;;;;;;;2.97;1.85;;;;;;;2.90;56.59;100786.72;5081543;28;20032;-59
2021/04/27 00:55:32;;;;;;;4.32;1.45;;;;;;;2.77;57.84;100786.34;5084158;28;20024;-60
2021/04/27 00:58:00;;;;;;;7.88;2.00;;;;;;;2.72;57.58;100786.22;5084834;28;20029;-59
2021/04/27 01:00:29;;;;;;;5.32;2.20;;;;;;;2.74;57.10;100786.25;5084970;28;20035;-59
2021/04/27 01:02:55;;;;;;;6.35;1.90;;;;;;;2.67;57.50;100782.63;5084752;28;20025;-59
2021/04/27 01:05:24;;;;;;;4.82;1.52;;;;;;;2.66;57.07;100780.91;5084888;28;20028;-60
2021/04/27 01:08:05;;;;;;;5.60;1.63;;;;;;;2.66;57.25;100782.59;5085022;28;20083;-63
2021/04/27 01:10:48;;;;;;;3.53;1.42;;;;;;;2.62;57.32;100786.75;5085118;28;20043;-59
2021/04/27 01:13:27;;;;;;;4.03;1.60;;;;;;;2.61;57.01;100785.00;5084611;28;20083;-59
2021/04/27 01:15:55;;;;;;;4.35;1.70;;;;;;;2.59;56.86;100778.97;5084571;28;20031;-64
2021/04/27 01:18:22;;;;;;;4.80;1.60;;;;;;;2.55;57.17;100779.69;5084505;28;20056;-60
2021/04/27 01:20:49;;;;;;;4.03;1.88;;;;;;;2.53;57.00;100784.78;5085025;28;20020;-60
2021/04/27 01:23:31;;;;;;;3.78;1.65;;;;;;;2.50;57.04;100776.13;5085120;28;20028;-59
2021/04/27 01:26:02;;;;;;;3.30;1.73;;;;;;;2.48;56.84;100784.63;5084773;28;20016;-60
2021/04/27 01:28:29;;;;;;;6.40;1.80;;;;;;;2.45;57.21;100781.09;5084254;28;20025;-60
2021/04/27 01:30:55;;;;;;;3.15;1.58;;;;;;;2.44;57.68;100776.81;5084835;28;20033;-60
2021/04/27 01:33:23;;;;;;;2.22;1.45;;;;;;;2.45;57.41;100773.41;5084873;28;20035;-59
2021/04/27 01:35:49;;;;;;;1.88;1.42;;;;;;;2.44;57.50;100779.38;5084711;28;20048;-60
2021/04/27 01:38:19;;;;;;;4.75;2.63;;;;;;;2.42;57.46;100776.78;5084349;28;20024;-59
2021/04/27 01:40:45;;;;;;;3.80;1.58;;;;;;;2.43;57.24;100775.09;5084675;28;20020;-60
2021/04/27 01:43:12;;;;;;;6.55;2.10;;;;;;;2.42;57.38;100778.44;5084271;28;20029;-63
2021/04/27 01:45:39;;;;;;;2.90;1.80;;;;;;;2.41;57.46;100771.59;5084652;28;20028;-63
2021/04/27 01:48:09;;;;;;;4.88;2.05;;;;;;;2.39;57.31;100773.22;5084566;28;20086;-59
2021/04/27 01:50:35;;;;;;;5.28;1.92;;;;;;;2.33;57.35;100766.22;5084339;28;20079;-63
2021/04/27 01:53:00;;;;;;;6.80;1.75;;;;;;;2.30;57.35;100763.56;5084295;28;20029;-63
2021/04/27 01:55:26;;;;;;;7.00;2.88;;;;;;;2.22;57.17;100771.88;5084237;28;20021;-63
2021/04/27 01:57:51;;;;;;;4.07;1.60;;;;;;;2.20;57.33;100780.34;5083960;28;20431;-63
2021/04/27 02:00:21;;;;;;;4.18;2.03;;;;;;;2.18;57.43;100779.41;5084432;28;20097;-64
2021/04/27 02:02:47;;;;;;;6.70;1.73;;;;;;;2.15;57.67;100776.75;5084272;28;20020;-64
2021/04/27 02:05:13;;;;;;;5.45;1.67;;;;;;;2.14;57.63;100778.44;5083840;28;20054;-64
2021/04/27 02:07:39;;;;;;;5.18;1.88;;;;;;;2.13;57.73;100773.25;5083826;28;20020;-59
2021/04/27 02:10:07;;;;;;;1.90;1.30;;;;;;;2.13;57.80;100771.59;5084245;28;20044;-59
2021/04/27 02:12:35;;;;;;;3.55;1.42;;;;;;;2.14;57.80;100773.31;5083669;28;20028;-59
2021/04/27 02:15:01;;;;;;;3.58;1.60;;;;;;;2.14;57.73;100767.34;5084001;28;20040;-59
2021/04/27 02:17:29;;;;;;;7.68;1.63;;;;;;;2.05;57.74;100752.53;5083921;28;20078;-64
2021/04/27 02:19:57;;;;;;;2.78;1.83;;;;;;;2.10;57.79;100759.56;5083778;28;20024;-59
2021/04/27 02:22:25;;;;;;;4.28;1.63;;;;;;;2.09;57.96;100770.59;5083815;28;20036;-59
2021/04/27 02:24:51;;;;;;;3.85;1.70;;;;;;;2.08;57.89;100758.63;5084019;28;20055;-64
2021/04/27 02:27:17;;;;;;;2.78;1.30;;;;;;;2.09;58.20;100750.13;5083635;28;20032;-63
2021/04/27 02:29:43;;;;;;;3.55;1.73;;;;;;;2.10;58.29;100751.00;5083803;28;20027;-64
2021/04/27 02:32:08;;;;;;;3.90;1.27;;;;;;;2.12;58.36;100757.03;5083373;28;20031;-59
2021/04/27 02:34:34;;;;;;;5.35;1.05;;;;;;;2.12;58.52;100757.03;5083410;28;20024;-60
2021/04/27 02:37:00;;;;;;;2.78;1.25;;;;;;;2.12;58.64;100758.72;5083689;28;20072;-60
2021/04/27 02:39:25;;;;;;;2.10;1.30;;;;;;;2.12;58.78;100758.72;5083253;28;20024;-60
2021/04/27 02:41:51;;;;;;;4.35;1.75;;;;;;;2.10;58.83;100759.56;5083203;28;20430;-60
2021/04/27 02:44:17;;;;;;;5.03;1.60;;;;;;;2.07;59.16;100750.91;5082801;28;20025;-59
2021/04/27 02:46:44;;;;;;;4.40;1.45;;;;;;;2.10;59.37;100756.13;5083371;28;20044;-60
2021/04/27 02:49:10;;;;;;;4.95;1.23;;;;;;;2.06;59.49;100750.00;5083166;28;20028;-59
2021/04/27 02:51:36;;;;;;;3.38;1.50;;;;;;;2.08;59.49;100752.63;5083030;28;20152;-61
2021/04/27 02:54:02;;;;;;;3.47;1.20;;;;;;;2.09;59.65;100755.22;5083159;28;20020;-59
2021/04/27 02:56:28;;;;;;;3.08;2.33;;;;;;;2.08;59.68;100752.63;5082713;28;20434;-59
2021/04/27 02:58:54;;;;;;;4.97;1.10;;;;;;;2.07;59.59;100750.91;5082493;28;20033;-58
2021/04/27 03:01:19;;;;;;;4.57;1.48;;;;;;;2.05;59.77;100752.53;5083380;28;20382;-63
2021/04/27 03:03:45;;;;;;;2.40;1.08;;;;;;;2.04;60.03;100751.69;5083055;28;20031;-62
2021/04/27 03:06:10;;;;;;;2.20;1.35;;;;;;;2.01;60.09;100753.25;5083068;28;20132;-62
2021/04/27 03:08:36;;;;;;;3.08;1.35;;;;;;;2.02;60.11;100747.31;5082624;28;20028;-62
2021/04/27 03:11:01;;;;;;;5.75;1.52;;;;;;;2.02;60.44;100753.31;5082668;28;20026;-63
2021/04/27 03:13:27;;;;;;;2.20;0.93;;;;;;;2.04;60.45;100746.56;5082478;28;20117;-62
2021/04/27 03:15:53;;;;;;;2.72;1.58;;;;;;;2.04;60.51;100745.69;5082543;28;20020;-62
2021/04/27 03:18:18;;;;;;;4.50;1.02;;;;;;;2.00;60.25;100733.59;5081929;28;20027;-62
2021/04/27 03:20:44;;;;;;;6.85;1.13;;;;;;;2.11;60.53;100752.72;5082043;28;20024;-62
2021/04/27 03:23:10;;;;;;;1.10;0.90;;;;;;;2.14;60.69;100750.25;5083283;28;20016;-63
2021/04/27 03:25:36;;;;;;;1.20;0.93;;;;;;;2.13;60.77;100740.84;5083116;28;20024;-64
2021/04/27 03:28:01;;;;;;;3.60;1.20;;;;;;;2.15;61.02;100751.13;5082470;28;20042;-63
2021/04/27 03:30:27;;;;;;;2.08;1.20;;;;;;;2.14;60.94;100749.41;5082658;28;20036;-63
2021/04/27 03:32:52;;;;;;;2.92;1.10;;;;;;;2.15;61.40;100746.00;5082850;28;20025;-64
2021/04/27 03:35:18;;;;;;;2.88;1.10;;;;;;;2.15;61.12;100749.47;5082838;28;20024;-63
2021/04/27 03:37:43;;;;;;;17.08;4.22;;;;;;;2.17;60.90;100752.91;5082403;28;20029;-63
2021/04/27 03:40:10;;;;;;;1.88;1.02;;;;;;;2.18;61.12;100744.44;5082574;28;20032;-64
2021/04/27 03:42:36;;;;;;;3.13;1.13;;;;;;;2.29;61.16;100751.56;5082275;28;20568;-63
2021/04/27 03:45:04;;;;;;;6.88;1.48;;;;;;;2.37;60.88;100754.38;5082180;28;20024;-63
2021/04/27 03:47:30;;;;;;;3.13;1.45;;;;;;;2.42;60.70;100766.50;5082092;28;20031;-64
2021/04/27 03:49:55;;;;;;;3.10;1.00;;;;;;;2.45;60.45;100758.91;5082197;28;20013;-63
2021/04/27 03:52:20;;;;;;;3.17;1.10;;;;;;;2.44;60.40;100764.88;5082576;28;20031;-62
2021/04/27 03:54:46;;;;;;;10.40;1.77;;;;;;;2.44;60.43;100756.31;5082175;28;20393;-63
2021/04/27 03:57:11;;;;;;;5.05;1.30;;;;;;;2.47;60.17;100757.28;5082195;28;20073;-64
2021/04/27 03:59:36;;;;;;;8.90;1.58;;;;;;;2.56;59.98;100755.81;5081800;28;20025;-65
2021/04/27 04:02:02;;;;;;;2.05;1.05;;;;;;;2.70;59.93;100763.94;5081932;28;20059;-64
2021/04/27 04:04:27;;;;;;;3.70;2.60;;;;;;;2.77;60.10;100760.72;5082354;28;20016;-64
2021/04/27 04:06:53;;;;;;;1.73;1.25;;;;;;;2.83;60.23;100766.00;5082089;28;20084;-64
2021/04/27 04:09:18;;;;;;;4.10;1.23;;;;;;;2.83;60.20;100760.00;5081953;28;20016;-63
2021/04/27 04:11:44;;;;;;;2.30;1.42;;;;;;;2.87;60.01;100751.59;5082262;28;20016;-62
2021/04/27 04:14:10;;;;;;;1.95;1.30;;;;;;;2.99;59.61;100761.31;5081715;28;20027;-64
2021/04/27 04:16:36;;;;;;;4.13;1.63;;;;;;;3.15;60.04;100759.19;5081933;28;20024;-63
2021/04/27 04:19:02;;;;;;;3.05;1.30;;;;;;;3.55;60.52;100757.69;5081400;28;20036;-64
2021/04/27 04:21:27;;;;;;;5.10;1.60;;;;;;;4.22;60.61;100756.78;5082227;28;20488;-64
2021/04/27 04:23:54;;;;;;;3.38;1.30;;;;;;;4.90;59.91;100753.97;5082266;28;20215;-63
2021/04/27 04:26:20;;;;;;;4.15;1.20;;;;;;;5.63;58.81;100754.47;5082102;28;20164;-62
2021/04/27 04:28:46;;;;;;;2.00;1.17;;;;;;;6.41;58.64;100760.88;5082988;28;20122;-65
2021/04/27 04:31:11;;;;;;;1.33;1.17;;;;;;;7.24;57.70;100758.44;5086105;28;20047;-64
2021/04/27 04:33:37;;;;;;;7.00;1.15;;;;;;;7.97;56.06;100760.88;5085638;28;20104;-64
2021/04/27 04:36:02;;;;;;;4.38;1.10;;;;;;;8.72;54.93;100756.22;5085817;28;20027;-63
2021/04/27 04:38:28;;;;;;;1.83;1.10;;;;;;;9.33;53.19;100762.47;5085600;28;20412;-64
2021/04/27 04:40:53;;;;;;;3.42;1.17;;;;;;;9.67;50.22;100759.97;5086031;28;20028;-63
2021/04/27 04:43:19;;;;;;;4.00;1.05;;;;;;;10.03;48.98;100764.28;5085294;28;20023;-63
2021/04/27 04:45:45;;;;;;;3.38;0.77;;;;;;;10.46;48.20;100762.50;5085433;28;20509;-64
2021/04/27 04:48:11;;;;;;;3.42;1.25;;;;;;;11.00;47.44;100754.56;5085285;28;20035;-63
2021/04/27 04:50:37;;;;;;;4.88;1.10;;;;;;;11.40;45.50;100760.41;5085247;28;20075;-64
2021/04/27 04:53:03;;;;;;;5.13;2.10;;;;;;;11.57;43.00;100762.91;5085540;28;20025;-64
2021/04/27 04:55:29;;;;;;;3.72;1.02;;;;;;;11.75;43.15;100756.72;5085506;28;20087;-63
2021/04/27 04:57:55;;;;;;;3.17;1.05;;;;;;;12.11;43.21;100756.44;5084873;28;20121;-63
2021/04/27 05:00:21;;;;;;;2.55;1.08;;;;;;;12.50;42.35;100753.47;5084914;28;20031;-64
2021/04/27 05:02:47;;;;;;;3.17;0.88;;;;;;;12.88;41.42;100758.22;5085016;28;20524;-63
2021/04/27 05:05:14;;;;;;;3.28;1.23;;;;;;;13.23;41.02;100756.03;5085498;28;20029;-64
2021/04/27 05:07:44;;;;;;;1.80;1.10;;;;;;;13.48;39.22;100756.53;5085375;28;20016;-65
2021/04/27 05:10:11;;;;;;;3.35;0.80;;;;;;;13.86;38.85;100762.09;5085462;28;20025;-66
2021/04/27 05:12:37;;;;;;;7.05;1.38;;;;;;;14.45;37.86;100754.97;5084843;28;20032;-67
2021/04/27 05:15:02;;;;;;;3.30;1.20;;;;;;;14.99;37.11;100754.81;5085510;28;20025;-68
2021/04/27 05:17:28;;;;;;;2.33;1.08;;;;;;;15.24;35.87;100757.72;5085313;28;20021;-73
2021/04/27 05:19:54;;;;;;;2.08;1.02;;;;;;;15.30;35.19;100756.75;5085711;28;20082;-67
2021/04/27 05:22:19;;;;;;;2.60;1.23;;;;;;;15.63;34.42;100747.28;5085051;28;20102;-62
2021/04/27 05:24:45;;;;;;;7.47;1.67;;;;;;;15.71;33.83;100753.19;5084692;28;20036;-63
2021/04/27 05:27:10;;;;;;;1.63;1.08;;;;;;;15.68;33.45;100753.25;5084771;28;20086;-65
2021/04/27 05:29:36;;;;;;;1.75;0.90;;;;;;;15.71;33.87;100756.66;5083327;28;20111;-70
2021/04/27 05:32:03;;;;;;;2.60;1.17;;;;;;;15.74;33.38;100753.09;5084907;28;20376;-68
2021/04/27 05:34:28;;;;;;;3.30;1.05;;;;;;;15.75;33.14;100754.81;5084856;28;20111;-69
2021/04/27 05:36:54;;;;;;;4.28;1.05;;;;;;;15.82;33.03;100759.03;5084787;28;20507;-66
2021/04/27 05:39:20;;;;;;;3.78;1.00;;;;;;;15.90;32.88;100752.72;5083095;28;20020;-63
2021/04/27 05:41:45;;;;;;;6.70;1.20;;;;;;;16.21;32.17;100765.06;5084145;28;20109;-65
2021/04/27 05:44:11;;;;;;;4.10;1.00;;;;;;;16.72;32.01;100762.81;5084563;28;20275;-65
2021/04/27 05:46:37;;;;;;;2.92;0.93;;;;;;;17.38;31.34;100756.53;5084562;28;20024;-66
2021/04/27 05:49:03;;;;;;;4.32;1.10;;;;;;;17.76;30.48;100756.22;5084555;28;20047;-68
2021/04/27 05:51:28;;;;;;;3.42;0.80;;;;;;;17.81;29.92;100750.81;5083977;28;20045;-68
2021/04/27 05:53:57;;;;;;;2.25;1.00;;;;;;;17.83;30.03;100759.47;5084458;28;20046;-68
2021/04/27 05:56:23;;;;;;;3.45;1.48;;;;;;;17.76;29.97;100756.22;5084842;28;20099;-63
2021/04/27 05:58:48;;;;;;;3.58;0.95;;;;;;;17.44;29.21;100758.09;5084109;28;20057;-67
2021/04/27 06:01:14;;;;;;;2.33;0.93;;;;;;;17.26;29.63;100764.78;5084064;28;20275;-66
2021/04/27 06:03:39;;;;;;;2.70;1.13;;;;;;;17.36;29.29;100755.72;5084042;28;20555;-66
2021/04/27 06:06:06;;;;;;;1.63;0.80;;;;;;;17.56;29.54;100759.47;5084222;28;20047;-67
2021/04/27 06:08:36;;;;;;;3.22;1.15;;;;;;;17.70;28.52;100759.00;5084130;28;20044;-66
2021/04/27 06:11:04;;;;;;;3.10;0.77;;;;;;;17.74;28.35;100757.16;5082745;28;20040;-66
2021/04/27 06:13:31;;;;;;;1.40;0.75;;;;;;;17.99;28.04;100765.06;5083557;28;20016;-66
2021/04/27 06:15:56;;;;;;;1.80;0.93;;;;;;;18.16;27.78;100759.25;5084049;28;20021;-66
2021/04/27 06:18:21;;;;;;;7.93;1.17;;;;;;;18.18;27.31;100762.69;5083482;28;20016;-66
2021/04/27 06:20:47;;;;;;;2.83;0.88;;;;;;;18.17;27.34;100765.38;5083724;28;20077;-66
2021/04/27 06:23:12;;;;;;;7.22;1.20;;;;;;;18.47;27.41;100769.63;5084127;28;20103;-66
2021/04/27 06:25:38;;;;;;;14.65;1.55;;;;;;;18.79;26.91;100768.44;5083646;28;20031;-66
2021/04/27 06:28:03;;;;;;;3.25;0.82;;;;;;;19.02;26.55;100757.97;5083510;28;20021;-66
2021/04/27 06:30:29;;;;;;;1.92;0.80;;;;;;;18.95;25.94;100767.84;5083413;28;20066;-66
2021/04/27 06:32:54;;;;;;;3.15;1.00;;;;;;;18.86;25.84;100770.84;5083883;28;20028;-66
2021/04/27 06:35:25;;;;;;;5.70;1.30;;;;;;;18.73;26.09;100763.41;5083746;28;20532;-66
2021/04/27 06:37:50;;;;;;;4.72;1.00;;;;;;;18.90;25.65;100764.53;5083210;28;20108;-65
2021/04/27 06:40:16;;;;;;;2.28;0.90;;;;;;;18.70;25.57;100764.41;5083013;28;20020;-66
2021/04/27 06:42:41;;;;;;;5.85;1.15;;;;;;;18.69;25.65;100762.66;5082732;28;20028;-66
2021/04/27 06:45:07;;;;;;;4.15;1.45;;;;;;;18.81;25.45;100760.50;5083252;28;20030;-65
2021/04/27 06:47:33;;;;;;;3.33;1.08;;;;;;;18.92;25.40;100755.69;5083351;28;20490;-66
2021/04/27 06:49:58;;;;;;;7.47;1.52;;;;;;;19.04;25.32;100754.34;5083033;28;20033;-65
2021/04/27 06:52:25;;;;;;;4.00;1.25;;;;;;;19.21;24.70;100758.13;5082823;28;20348;-66
2021/04/27 06:54:50;;;;;;;8.68;1.83;;;;;;;19.11;24.66;100759.41;5082995;28;20032;-66
2021/04/27 06:57:16;;;;;;;2.65;1.10;;;;;;;19.05;25.02;100755.22;5082731;28;20028;-66
2021/04/27 06:59:41;;;;;;;5.85;1.63;;;;;;;19.37;24.78;100753.13;5082343;28;20031;-66
2021/04/27 07:02:08;;;;;;;7.10;1.30;;;;;;;19.59;24.46;100751.38;5082900;28;20478;-65
2021/04/27 07:04:35;;;;;;;8.90;1.15;;;;;;;19.82;23.94;100753.91;5083220;28;20028;-65
2021/04/27 07:07:02;;;;;;;5.20;1.25;;;;;;;19.77;23.75;100758.53;5083002;28;20469;-65
2021/04/27 07:09:27;;;;;;;5.97;1.30;;;;;;;19.80;23.44;100757.56;5082728;28;20024;-65
2021/04/27 07:11:53;;;;;;;3.10;1.35;;;;;;;19.66;23.46;100758.13;5082710;28;20070;-64
2021/04/27 07:14:18;;;;;;;3.00;1.15;;;;;;;19.55;23.55;100753.31;5082231;28;20032;-65
2021/04/27 07:16:44;;;;;;;2.55;1.20;;;;;;;19.50;23.71;100753.50;5081408;28;20021;-64
2021/04/27 07:19:09;;;;;;;7.32;1.20;;;;;;;19.60;23.76;100753.13;5064556;28;20027;-65
2021/04/27 07:21:37;;;;;;;3.22;1.10;;;;;;;19.63;23.80;100753.81;5082729;28;20025;-65
2021/04/27 07:24:04;;;;;;;8.77;0.90;;;;;;;19.88;23.53;100746.69;5082587;28;20016;-65
2021/04/27 07:26:33;;;;;;;3.22;1.13;;;;;;;20.12;23.00;100750.09;5082418;28;20094;-65
2021/04/27 07:28:59;;;;;;;3.63;0.90;;;;;;;20.26;22.53;100752.13;5082056;28;20096;-64
2021/04/27 07:31:25;;;;;;;2.95;1.05;;;;;;;20.40;22.27;100755.94;5083077;28;20025;-65
2021/04/27 07:33:50;;;;;;;3.80;0.90;;;;;;;19.96;21.87;100751.63;5082624;28;20146;-65
2021/04/27 07:36:18;;;;;;;2.55;0.90;;;;;;;19.63;22.47;100751.19;5082614;28;20070;-65
2021/04/27 07:38:43;;;;;;;2.08;0.73;;;;;;;19.42;22.47;100747.69;5082194;28;20020;-65
2021/04/27 07:41:09;;;;;;;5.07;1.10;;;;;;;19.53;22.42;100747.25;5082204;28;20024;-65
2021/04/27 07:43:34;;;;;;;5.97;0.93;;;;;;;19.16;22.14;100750.44;5082528;28;20031;-69
2021/04/27 07:45:59;;;;;;;7.45;0.98;;;;;;;18.39;22.32;100746.22;5082832;28;20012;-66
2021/04/27 07:48:25;;;;;;;1.42;0.80;;;;;;;18.15;22.96;100747.03;5082352;28;20048;-65
2021/04/27 07:50:51;;;;;;;1.98;0.82;;;;;;;18.66;22.44;100754.00;5081565;28;20602;-65
2021/04/27 07:53:17;;;;;;;2.03;0.80;;;;;;;18.97;20.78;100744.13;5081090;28;20029;-67
2021/04/27 07:55:43;;;;;;;6.03;1.17;;;;;;;18.93;20.83;100738.13;5082425;28;20436;-65
2021/04/27 07:58:09;;;;;;;1.38;0.65;;;;;;;19.48;20.88;100739.53;5081983;28;20124;-65
2021/04/27 08:00:34;;;;;;;3.03;0.73;;;;;;;19.89;20.79;100743.16;5082105;28;20477;-65
2021/04/27 08:03:00;;;;;;;1.58;0.88;;;;;;;20.19;20.78;100742.78;5082150;28;20354;-65
2021/04/27 08:05:25;;;;;;;4.70;1.10;;;;;;;20.51;20.69;100740.47;5088859;28;20027;-66
2021/04/27 08:07:51;;;;;;;4.50;1.48;;;;;;;20.81;19.96;100736.53;5089043;28;20042;-65
2021/04/27 08:10:16;;;;;;;5.43;1.25;;;;;;;20.94;20.45;100742.13;5088855;28;20032;-66
2021/04/27 08:12:44;;;;;;;5.60;1.33;;;;;;;21.21;19.95;100738.22;5087256;28;20021;-65
2021/04/27 08:15:13;;;;;;;7.20;1.40;;;;;;;21.36;19.70;100741.94;5088557;28;20035;-65
2021/04/27 08:17:39;;;;;;;4.80;1.27;;;;;;;20.53;19.94;100738.63;5088668;28;20365;-65
2021/04/27 08:20:06;;;;;;;2.67;1.00;;;;;;;19.50;20.98;100737.69;5088798;28;20032;-67
2021/04/27 08:22:34;;;;;;;8.13;1.35;;;;;;;19.20;22.05;100745.91;5088913;28;20343;-68
2021/04/27 08:25:00;;;;;;;3.85;1.02;;;;;;;19.27;21.93;100739.47;5088872;28;20020;-67
2021/04/27 08:27:25;;;;;;;12.45;1.20;;;;;;;19.30;21.98;100741.13;5088881;28;20028;-67
2021/04/27 08:29:54;;;;;;;3.22;0.90;;;;;;;19.46;21.79;100741.34;5088151;28;20021;-68
2021/04/27 08:32:19;;;;;;;6.20;1.38;;;;;;;19.54;21.27;100739.28;5088683;28;20054;-65
2021/04/27 08:34:48;;;;;;;6.15;1.02;;;;;;;19.09;21.82;100733.16;5089053;28;20020;-64
2021/04/27 08:37:13;;;;;;;5.55;1.00;;;;;;;19.15;22.24;100738.16;5088812;28;20032;-64
2021/04/27 08:39:39;;;;;;;4.15;0.95;;;;;;;19.61;22.29;100745.16;5088549;28;20024;-65
2021/04/27 08:42:05;;;;;;;6.38;1.33;;;;;;;20.12;21.42;100747.47;5088709;28;20050;-64
2021/04/27 08:44:33;;;;;;;3.17;1.23;;;;;;;20.43;21.31;100739.97;5088175;28;20024;-65
2021/04/27 08:47:04;;;;;;;4.03;0.88;;;;;;;20.92;20.73;100739.56;5088661;28;20028;-64
2021/04/27 08:49:29;;;;;;;4.15;0.90;;;;;;;21.31;20.32;100739.47;5088413;28;20036;-64
2021/04/27 08:51:54;;;;;;;7.35;1.20;;;;;;;21.55;20.46;100737.44;5086976;28;20040;-63
2021/04/27 08:54:20;;;;;;;3.17;1.00;;;;;;;21.95;20.00;100733.72;5088482;28;20181;-63
2021/04/27 08:56:46;;;;;;;2.90;0.75;;;;;;;22.15;19.86;100738.00;5087112;28;20032;-63
2021/04/27 08:59:13;;;;;;;2.53;0.73;;;;;;;22.26;20.04;100734.78;5087760;28;20066;-64
2021/04/27 09:01:39;;;;;;;4.38;1.23;;;;;;;22.22;19.60;100730.56;5088231;28;20024;-62
2021/04/27 09:04:04;;;;;;;2.08;0.90;;;;;;;22.42;19.77;100739.25;5088488;28;20039;-63
2021/04/27 09:06:30;;;;;;;5.00;1.00;;;;;;;22.28;19.60;100727.59;5088911;28;20056;-64
2021/04/27 09:08:56;;;;;;;2.13;0.70;;;;;;;22.34;20.14;100734.38;5086897;28;20044;-63
2021/04/27 09:11:31;;;;;;;4.30;0.93;;;;;;;21.49;20.20;100728.94;5088423;28;20028;-63
2021/04/27 09:14:21;;;;;;;6.13;0.90;;;;;;;19.92;21.83;100729.84;5087906;28;20100;-62
2021/04/27 09:16:51;;;;;;;4.38;1.02;;;;;;;18.25;23.66;100739.72;5084156;28;20032;-64
2021/04/27 09:19:33;;;;;;;5.90;1.02;;;;;;;17.65;25.17;100732.06;5084710;28;20078;-63
2021/04/27 09:22:17;;;;;;;7.80;1.30;;;;;;;18.73;24.72;100726.59;5085459;28;20027;-63
2021/04/27 09:24:54;;;;;;;2.28;1.23;;;;;;;19.61;23.42;100724.09;5085100;28;20020;-65
2021/04/27 09:27:48;;;;;;;1.48;0.73;;;;;;;19.96;22.89;100722.66;5084748;28;20025;-64
2021/04/27 09:30:19;;;;;;;5.10;1.10;;;;;;;20.34;22.96;100719.28;5083600;28;20038;-63
2021/04/27 09:32:53;;;;;;;3.72;0.80;;;;;;;20.71;22.37;100725.53;5084877;28;20025;-64
2021/04/27 09:35:27;;;;;;;6.80;1.10;;;;;;;21.07;22.18;100723.88;5085091;28;20021;-65
2021/04/27 09:38:13;;;;;;;4.85;1.00;;;;;;;21.67;21.58;100719.25;5084612;28;20074;-64
2021/04/27 09:40:56;;;;;;;4.15;0.82;;;;;;;22.16;20.79;100723.84;5084415;28;20031;-64
2021/04/27 09:43:32;;;;;;;2.55;0.80;;;;;;;22.49;20.30;100724.75;5082843;28;20025;-65
2021/04/27 09:46:07;;;;;;;3.58;1.42;;;;;;;22.71;19.85;100728.94;5084818;28;20025;-64
2021/04/27 09:48:37;;;;;;;2.55;1.02;;;;;;;22.85;20.01;100711.41;5084201;28;20123;-64
2021/04/27 09:51:12;;;;;;;2.13;0.80;;;;;;;22.82;19.78;100711.59;5083806;28;20052;-64
2021/04/27 09:53:52;;;;;;;5.40;1.00;;;;;;;23.18;19.87;100717.56;5084144;28;20088;-62
2021/04/27 09:56:39;;;;;;;8.35;1.13;;;;;;;23.52;19.62;100705.91;5084222;28;20020;-63
2021/04/27 09:59:12;;;;;;;2.28;0.90;;;;;;;23.72;19.40;100693.25;5084059;28;20024;-63
2021/04/27 10:01:38;;;;;;;4.13;0.80;;;;;;;23.94;18.76;100707.88;5084350;28;20137;-63
2021/04/27 10:04:05;;;;;;;4.43;0.70;;;;;;;23.62;19.43;100702.72;5084105;28;20020;-64
2021/04/27 10:06:30;;;;;;;4.03;0.80;;;;;;;23.80;19.09;100702.56;5084070;28;20073;-64
2021/04/27 10:08:59;;;;;;;15.05;0.90;;;;;;;23.52;19.33;100697.09;5083958;28;20107;-64
2021/04/27 10:11:28;;;;;;;3.08;0.90;;;;;;;23.24;19.59;100696.84;5084132;28;20047;-64
2021/04/27 10:13:55;;;;;;;1.77;0.98;;;;;;;22.82;19.95;100690.41;5083759;28;20031;-64
2021/04/27 10:16:22;;;;;;;6.60;1.10;;;;;;;22.70;20.38;100687.50;5084067;28;20032;-64
2021/04/27 10:18:52;;;;;;;2.30;0.82;;;;;;;22.63;20.43;100692.31;5083541;28;20021;-64
2021/04/27 10:21:17;;;;;;;3.30;0.90;;;;;;;22.33;20.52;100694.78;5083723;28;20086;-64
2021/04/27 10:23:52;;;;;;;2.05;0.90;;;;;;;22.26;20.96;100686.31;5083833;28;20020;-64
2021/04/27 10:26:25;;;;;;;2.17;0.80;;;;;;;22.50;20.85;100685.94;5083757;28;20500;-64
2021/04/27 10:29:00;;;;;;;1.20;0.80;;;;;;;22.64;20.32;100687.84;5083458;28;20052;-64
2021/04/27 10:31:27;;;;;;;3.13;0.70;;;;;;;22.50;20.33;100683.28;5083961;28;20070;-64
2021/04/27 10:34:14;;;;;;;4.00;0.88;;;;;;;22.11;20.45;100686.19;5083459;28;20048;-64
2021/04/27 10:36:59;;;;;;;6.60;0.85;;;;;;;21.82;20.78;100675.34;5083795;28;20044;-64
2021/04/27 10:39:46;;;;;;;3.13;0.77;;;;;;;21.51;21.33;100684.84;5083258;28;20024;-64
2021/04/27 10:42:22;;;;;;;2.25;0.70;;;;;;;21.61;21.04;100675.53;5083641;28;20028;-64
2021/04/27 10:44:55;;;;;;;5.82;0.98;;;;;;;21.57;21.00;100678.38;5083196;28;20084;-65
2021/04/27 10:47:22;;;;;;;3.65;1.27;;;;;;;21.90;20.45;100672.34;5083558;28;20048;-64
2021/04/27 10:49:48;;;;;;;4.20;0.68;;;;;;;21.45;20.78;100672.81;5081540;28;20047;-64
2021/04/27 10:52:34;;;;;;;2.15;0.70;;;;;;;21.26;20.82;100668.41;5081761;28;20021;-64
2021/04/27 10:55:21;;;;;;;5.18;1.00;;;;;;;21.16;21.05;100668.03;5083282;28;20085;-64
2021/04/27 10:57:47;;;;;;;2.85;0.82;;;;;;;21.11;21.27;100666.53;5083371;28;20029;-63
2021/04/27 11:00:31;;;;;;;1.23;0.70;;;;;;;21.25;20.77;100656.16;5082808;28;20466;-63
2021/04/27 11:03:25;;;;;;;2.53;0.98;;;;;;;20.96;20.98;100655.78;5082799;28;20021;-62
2021/04/27 11:06:00;;;;;;;6.50;1.00;;;;;;;21.03;21.06;100657.22;5082797;28;20020;-62
2021/04/27 11:09:00;;;;;;;2.08;0.90;;;;;;;21.21;20.49;100659.88;5083123;28;20092;-62
2021/04/27 11:11:28;;;;;;;3.10;0.80;;;;;;;21.11;20.36;100648.94;5083166;28;20020;-62
2021/04/27 11:14:29;;;;;;;9.60;1.15;;;;;;;21.08;20.06;100656.13;5082590;28;20206;-62
2021/04/27 11:16:56;;;;;;;2.53;0.93;;;;;;;21.13;20.12;100657.63;5059644;28;20029;-62
2021/04/27 11:19:26;;;;;;;4.85;0.75;;;;;;;21.41;19.62;100658.03;5059758;28;20048;-61
2021/04/27 11:21:54;;;;;;;3.10;0.70;;;;;;;21.28;19.46;100645.44;5060390;28;20025;-62
2021/04/27 11:24:39;;;;;;;4.45;1.00;;;;;;;20.18;19.86;100652.31;5060185;28;20124;-62
2021/04/27 11:27:06;;;;;;;2.83;0.80;;;;;;;18.82;20.89;100643.84;5059865;28;20115;-62
2021/04/27 11:29:34;;;;;;;5.28;0.80;;;;;;;17.44;22.27;100645.25;5059017;28;20340;-63
2021/04/27 11:32:10;;;;;;;1.90;0.98;;;;;;;16.70;23.55;100646.66;5059389;28;20083;-62
2021/04/27 11:34:50;;;;;;;1.95;0.82;;;;;;;16.14;23.87;100640.41;5059910;28;20033;-62